sensor_id;sensor_type;location;lat;lon;timestamp;P1;durP1;ratioP1;P2;durP2;ratioP2
57856;SDS011;43683;48.650;9.290;2022-08-20T00:00:08;11.52;;;6.65;;
57856;SDS011;43683;48.650;9.290;2022-08-20T00:02:41;10.55;;;6.32;;
57856;SDS011;43683;48.650;9.290;2022-08-20T00:05:12;10.75;;;6.28;;
57856;SDS011;43683;48.650;9.290;2022-08-20T00:07:40;10.02;;;6.30;;
57856;SDS011;43683;48.650;9.290;2022-08-20T00:10:05;10.73;;;5.97;;
57856;SDS011;43683;48.650;9.290;2022-08-20T00:12:33;10.07;;;6.07;;
57856;SDS011;43683;48.650;9.290;2022-08-20T00:14:59;10.05;;;5.43;;
57856;SDS011;43683;48.650;9.290;2022-08-20T00:17:25;8.32;;;5.15;;
57856;SDS011;43683;48.650;9.290;2022-08-20T00:19:52;8.13;;;5.77;;
57856;SDS011;43683;48.650;9.290;2022-08-20T00:22:18;9.35;;;5.20;;
57856;SDS011;43683;48.650;9.290;2022-08-20T00:24:43;8.52;;;5.07;;
57856;SDS011;43683;48.650;9.290;2022-08-20T00:27:09;6.80;;;4.65;;
57856;SDS011;43683;48.650;9.290;2022-08-20T00:29:34;10.65;;;5.03;;
57856;SDS011;43683;48.650;9.290;2022-08-20T00:32:00;9.35;;;5.15;;
57856;SDS011;43683;48.650;9.290;2022-08-20T00:34:25;8.13;;;4.82;;
57856;SDS011;43683;48.650;9.290;2022-08-20T00:36:51;8.40;;;4.50;;
57856;SDS011;43683;48.650;9.290;2022-08-20T00:39:16;8.35;;;4.70;;
57856;SDS011;43683;48.650;9.290;2022-08-20T00:41:42;8.75;;;5.28;;
57856;SDS011;43683;48.650;9.290;2022-08-20T00:46:33;6.63;;;3.97;;
57856;SDS011;43683;48.650;9.290;2022-08-20T00:49:00;5.88;;;3.15;;
57856;SDS011;43683;48.650;9.290;2022-08-20T00:54:03;5.22;;;2.88;;
57856;SDS011;43683;48.650;9.290;2022-08-20T00:56:33;5.65;;;2.90;;
57856;SDS011;43683;48.650;9.290;2022-08-20T00:59:00;3.17;;;2.00;;
57856;SDS011;43683;48.650;9.290;2022-08-20T01:01:28;4.15;;;2.60;;
57856;SDS011;43683;48.650;9.290;2022-08-20T01:03:58;4.03;;;2.40;;
57856;SDS011;43683;48.650;9.290;2022-08-20T01:06:24;3.58;;;2.92;;
57856;SDS011;43683;48.650;9.290;2022-08-20T01:08:50;4.43;;;2.63;;
57856;SDS011;43683;48.650;9.290;2022-08-20T01:11:16;7.30;;;2.50;;
57856;SDS011;43683;48.650;9.290;2022-08-20T01:13:45;6.45;;;2.70;;
57856;SDS011;43683;48.650;9.290;2022-08-20T01:16:44;4.78;;;2.92;;
57856;SDS011;43683;48.650;9.290;2022-08-20T01:19:02;5.25;;;2.55;;
57856;SDS011;43683;48.650;9.290;2022-08-20T01:21:28;4.35;;;2.40;;
57856;SDS011;43683;48.650;9.290;2022-08-20T01:24:10;3.78;;;2.55;;
57856;SDS011;43683;48.650;9.290;2022-08-20T01:26:45;3.25;;;2.10;;
57856;SDS011;43683;48.650;9.290;2022-08-20T01:29:13;2.80;;;2.10;;
57856;SDS011;43683;48.650;9.290;2022-08-20T01:31:43;4.28;;;2.63;;
57856;SDS011;43683;48.650;9.290;2022-08-20T01:34:10;4.40;;;2.60;;
57856;SDS011;43683;48.650;9.290;2022-08-20T01:36:40;3.88;;;2.17;;
57856;SDS011;43683;48.650;9.290;2022-08-20T01:39:09;3.92;;;2.40;;
57856;SDS011;43683;48.650;9.290;2022-08-20T01:41:43;4.47;;;2.42;;
57856;SDS011;43683;48.650;9.290;2022-08-20T01:44:30;5.97;;;2.72;;
57856;SDS011;43683;48.650;9.290;2022-08-20T01:46:56;3.58;;;2.10;;
57856;SDS011;43683;48.650;9.290;2022-08-20T01:49:40;4.85;;;2.53;;
57856;SDS011;43683;48.650;9.290;2022-08-20T01:52:10;4.80;;;2.58;;
57856;SDS011;43683;48.650;9.290;2022-08-20T01:54:42;3.80;;;2.13;;
57856;SDS011;43683;48.650;9.290;2022-08-20T01:57:13;4.00;;;2.38;;
57856;SDS011;43683;48.650;9.290;2022-08-20T01:59:41;4.15;;;2.72;;
57856;SDS011;43683;48.650;9.290;2022-08-20T02:02:08;6.05;;;3.28;;
57856;SDS011;43683;48.650;9.290;2022-08-20T02:04:36;4.40;;;2.47;;
57856;SDS011;43683;48.650;9.290;2022-08-20T02:07:02;4.53;;;2.85;;
57856;SDS011;43683;48.650;9.290;2022-08-20T02:09:31;4.00;;;2.88;;
57856;SDS011;43683;48.650;9.290;2022-08-20T02:12:02;5.10;;;3.05;;
57856;SDS011;43683;48.650;9.290;2022-08-20T02:14:30;5.68;;;2.65;;
57856;SDS011;43683;48.650;9.290;2022-08-20T02:16:56;4.13;;;2.78;;
57856;SDS011;43683;48.650;9.290;2022-08-20T02:19:36;4.03;;;2.72;;
57856;SDS011;43683;48.650;9.290;2022-08-20T02:22:10;8.75;;;2.83;;
57856;SDS011;43683;48.650;9.290;2022-08-20T02:24:40;6.07;;;2.85;;
57856;SDS011;43683;48.650;9.290;2022-08-20T02:27:07;7.20;;;3.30;;
57856;SDS011;43683;48.650;9.290;2022-08-20T02:29:32;7.85;;;3.63;;
57856;SDS011;43683;48.650;9.290;2022-08-20T02:31:58;6.57;;;3.67;;
57856;SDS011;43683;48.650;9.290;2022-08-20T02:34:24;7.57;;;3.70;;
57856;SDS011;43683;48.650;9.290;2022-08-20T02:36:50;6.65;;;3.70;;
57856;SDS011;43683;48.650;9.290;2022-08-20T02:39:16;7.68;;;4.50;;
57856;SDS011;43683;48.650;9.290;2022-08-20T02:41:42;9.45;;;4.80;;
57856;SDS011;43683;48.650;9.290;2022-08-20T02:44:07;7.53;;;4.38;;
57856;SDS011;43683;48.650;9.290;2022-08-20T02:46:33;9.65;;;4.85;;
57856;SDS011;43683;48.650;9.290;2022-08-20T02:48:59;8.38;;;5.00;;
57856;SDS011;43683;48.650;9.290;2022-08-20T02:51:25;8.27;;;4.65;;
57856;SDS011;43683;48.650;9.290;2022-08-20T02:53:51;8.47;;;4.60;;
57856;SDS011;43683;48.650;9.290;2022-08-20T02:56:17;7.97;;;4.00;;
57856;SDS011;43683;48.650;9.290;2022-08-20T02:58:44;8.20;;;4.40;;
57856;SDS011;43683;48.650;9.290;2022-08-20T03:01:12;7.50;;;4.05;;
57856;SDS011;43683;48.650;9.290;2022-08-20T03:03:40;7.35;;;4.05;;
57856;SDS011;43683;48.650;9.290;2022-08-20T03:06:07;7.18;;;4.15;;
57856;SDS011;43683;48.650;9.290;2022-08-20T03:10:59;7.00;;;4.22;;
57856;SDS011;43683;48.650;9.290;2022-08-20T03:13:25;7.43;;;4.03;;
57856;SDS011;43683;48.650;9.290;2022-08-20T03:15:52;7.78;;;4.07;;
57856;SDS011;43683;48.650;9.290;2022-08-20T03:18:20;8.57;;;4.63;;
57856;SDS011;43683;48.650;9.290;2022-08-20T03:20:47;7.28;;;4.25;;
57856;SDS011;43683;48.650;9.290;2022-08-20T03:23:13;9.35;;;5.20;;
57856;SDS011;43683;48.650;9.290;2022-08-20T03:25:40;7.55;;;4.28;;
57856;SDS011;43683;48.650;9.290;2022-08-20T03:28:06;7.30;;;4.40;;
57856;SDS011;43683;48.650;9.290;2022-08-20T03:30:33;9.53;;;4.67;;
57856;SDS011;43683;48.650;9.290;2022-08-20T03:32:58;7.00;;;4.10;;
57856;SDS011;43683;48.650;9.290;2022-08-20T03:35:25;7.07;;;3.85;;
57856;SDS011;43683;48.650;9.290;2022-08-20T03:37:51;8.20;;;4.57;;
57856;SDS011;43683;48.650;9.290;2022-08-20T03:40:21;8.68;;;4.80;;
57856;SDS011;43683;48.650;9.290;2022-08-20T03:42:49;8.68;;;4.38;;
57856;SDS011;43683;48.650;9.290;2022-08-20T03:45:16;6.05;;;4.05;;
57856;SDS011;43683;48.650;9.290;2022-08-20T03:47:43;6.70;;;4.13;;
57856;SDS011;43683;48.650;9.290;2022-08-20T03:50:09;6.97;;;3.63;;
57856;SDS011;43683;48.650;9.290;2022-08-20T03:52:35;6.55;;;4.55;;
57856;SDS011;43683;48.650;9.290;2022-08-20T03:55:02;8.38;;;4.25;;
57856;SDS011;43683;48.650;9.290;2022-08-20T03:57:28;13.95;;;4.75;;
57856;SDS011;43683;48.650;9.290;2022-08-20T03:59:54;6.72;;;4.00;;
57856;SDS011;43683;48.650;9.290;2022-08-20T04:02:20;7.82;;;4.75;;
57856;SDS011;43683;48.650;9.290;2022-08-20T04:04:45;8.10;;;4.55;;
57856;SDS011;43683;48.650;9.290;2022-08-20T04:07:16;8.13;;;4.47;;
57856;SDS011;43683;48.650;9.290;2022-08-20T04:09:53;8.73;;;4.72;;
57856;SDS011;43683;48.650;9.290;2022-08-20T04:12:19;8.23;;;4.30;;
57856;SDS011;43683;48.650;9.290;2022-08-20T04:14:47;8.05;;;4.10;;
57856;SDS011;43683;48.650;9.290;2022-08-20T04:17:14;7.07;;;4.35;;
57856;SDS011;43683;48.650;9.290;2022-08-20T04:19:41;9.38;;;4.93;;
57856;SDS011;43683;48.650;9.290;2022-08-20T04:22:08;9.20;;;4.90;;
57856;SDS011;43683;48.650;9.290;2022-08-20T04:24:37;7.57;;;4.35;;
57856;SDS011;43683;48.650;9.290;2022-08-20T04:27:04;10.10;;;4.97;;
57856;SDS011;43683;48.650;9.290;2022-08-20T04:29:30;8.82;;;4.63;;
57856;SDS011;43683;48.650;9.290;2022-08-20T04:31:57;6.80;;;4.18;;
57856;SDS011;43683;48.650;9.290;2022-08-20T04:34:22;9.10;;;4.40;;
57856;SDS011;43683;48.650;9.290;2022-08-20T04:36:48;7.85;;;4.28;;
57856;SDS011;43683;48.650;9.290;2022-08-20T04:39:14;9.02;;;5.22;;
57856;SDS011;43683;48.650;9.290;2022-08-20T04:41:40;7.72;;;4.15;;
57856;SDS011;43683;48.650;9.290;2022-08-20T04:44:06;8.07;;;4.95;;
57856;SDS011;43683;48.650;9.290;2022-08-20T04:46:32;10.60;;;5.10;;
57856;SDS011;43683;48.650;9.290;2022-08-20T04:48:58;9.45;;;4.97;;
57856;SDS011;43683;48.650;9.290;2022-08-20T04:51:25;8.48;;;4.32;;
57856;SDS011;43683;48.650;9.290;2022-08-20T04:53:51;7.68;;;4.57;;
57856;SDS011;43683;48.650;9.290;2022-08-20T04:56:18;8.60;;;4.93;;
57856;SDS011;43683;48.650;9.290;2022-08-20T04:58:47;7.50;;;4.47;;
57856;SDS011;43683;48.650;9.290;2022-08-20T05:01:14;7.20;;;4.35;;
57856;SDS011;43683;48.650;9.290;2022-08-20T05:03:41;7.95;;;4.95;;
57856;SDS011;43683;48.650;9.290;2022-08-20T05:06:08;9.52;;;4.30;;
57856;SDS011;43683;48.650;9.290;2022-08-20T05:08:36;7.90;;;4.45;;
57856;SDS011;43683;48.650;9.290;2022-08-20T05:11:05;7.97;;;4.35;;
57856;SDS011;43683;48.650;9.290;2022-08-20T05:13:33;7.63;;;4.25;;
57856;SDS011;43683;48.650;9.290;2022-08-20T05:15:59;7.43;;;4.13;;
57856;SDS011;43683;48.650;9.290;2022-08-20T05:18:25;6.77;;;3.93;;
57856;SDS011;43683;48.650;9.290;2022-08-20T05:20:51;5.80;;;3.60;;
57856;SDS011;43683;48.650;9.290;2022-08-20T05:23:18;8.43;;;4.43;;
57856;SDS011;43683;48.650;9.290;2022-08-20T05:25:46;7.25;;;4.10;;
57856;SDS011;43683;48.650;9.290;2022-08-20T05:28:17;6.93;;;3.88;;
57856;SDS011;43683;48.650;9.290;2022-08-20T05:30:46;6.63;;;3.85;;
57856;SDS011;43683;48.650;9.290;2022-08-20T05:33:13;7.45;;;4.18;;
57856;SDS011;43683;48.650;9.290;2022-08-20T05:35:41;8.10;;;4.32;;
57856;SDS011;43683;48.650;9.290;2022-08-20T05:38:07;8.43;;;3.95;;
57856;SDS011;43683;48.650;9.290;2022-08-20T05:40:36;7.55;;;4.45;;
57856;SDS011;43683;48.650;9.290;2022-08-20T05:43:02;7.00;;;3.85;;
57856;SDS011;43683;48.650;9.290;2022-08-20T05:45:31;7.50;;;4.25;;
57856;SDS011;43683;48.650;9.290;2022-08-20T05:47:58;7.13;;;4.35;;
57856;SDS011;43683;48.650;9.290;2022-08-20T05:50:27;7.90;;;4.50;;
57856;SDS011;43683;48.650;9.290;2022-08-20T05:52:53;8.20;;;4.40;;
57856;SDS011;43683;48.650;9.290;2022-08-20T05:55:19;8.95;;;4.32;;
57856;SDS011;43683;48.650;9.290;2022-08-20T05:57:44;9.98;;;4.93;;
57856;SDS011;43683;48.650;9.290;2022-08-20T06:00:10;8.70;;;4.90;;
57856;SDS011;43683;48.650;9.290;2022-08-20T06:02:38;8.02;;;4.78;;
57856;SDS011;43683;48.650;9.290;2022-08-20T06:05:22;8.50;;;4.75;;
57856;SDS011;43683;48.650;9.290;2022-08-20T06:07:49;8.20;;;4.97;;
57856;SDS011;43683;48.650;9.290;2022-08-20T06:10:14;7.75;;;4.65;;
57856;SDS011;43683;48.650;9.290;2022-08-20T06:12:41;7.82;;;4.65;;
57856;SDS011;43683;48.650;9.290;2022-08-20T06:15:08;7.80;;;4.65;;
57856;SDS011;43683;48.650;9.290;2022-08-20T06:17:34;7.00;;;4.43;;
57856;SDS011;43683;48.650;9.290;2022-08-20T06:20:00;7.80;;;4.50;;
57856;SDS011;43683;48.650;9.290;2022-08-20T06:22:30;7.85;;;5.00;;
57856;SDS011;43683;48.650;9.290;2022-08-20T06:24:55;7.50;;;4.47;;
57856;SDS011;43683;48.650;9.290;2022-08-20T06:27:21;7.30;;;4.07;;
57856;SDS011;43683;48.650;9.290;2022-08-20T06:29:47;7.25;;;4.18;;
57856;SDS011;43683;48.650;9.290;2022-08-20T06:32:13;7.97;;;4.47;;
57856;SDS011;43683;48.650;9.290;2022-08-20T06:34:39;6.47;;;3.90;;
57856;SDS011;43683;48.650;9.290;2022-08-20T06:37:14;5.82;;;3.55;;
57856;SDS011;43683;48.650;9.290;2022-08-20T06:39:42;6.70;;;4.05;;
57856;SDS011;43683;48.650;9.290;2022-08-20T06:42:07;7.63;;;4.05;;
57856;SDS011;43683;48.650;9.290;2022-08-20T06:44:33;8.15;;;4.25;;
57856;SDS011;43683;48.650;9.290;2022-08-20T06:46:59;8.43;;;4.38;;
57856;SDS011;43683;48.650;9.290;2022-08-20T06:49:25;6.13;;;4.03;;
57856;SDS011;43683;48.650;9.290;2022-08-20T06:51:50;6.05;;;3.90;;
57856;SDS011;43683;48.650;9.290;2022-08-20T06:54:16;6.38;;;3.97;;
57856;SDS011;43683;48.650;9.290;2022-08-20T06:56:41;6.97;;;3.78;;
57856;SDS011;43683;48.650;9.290;2022-08-20T06:59:08;7.68;;;4.25;;
57856;SDS011;43683;48.650;9.290;2022-08-20T07:01:33;7.60;;;4.38;;
57856;SDS011;43683;48.650;9.290;2022-08-20T07:03:59;8.18;;;4.22;;
57856;SDS011;43683;48.650;9.290;2022-08-20T07:06:25;5.88;;;3.90;;
57856;SDS011;43683;48.650;9.290;2022-08-20T07:08:51;6.93;;;4.28;;
57856;SDS011;43683;48.650;9.290;2022-08-20T07:11:17;7.90;;;4.67;;
57856;SDS011;43683;48.650;9.290;2022-08-20T07:16:10;7.40;;;3.63;;
57856;SDS011;43683;48.650;9.290;2022-08-20T07:18:35;8.35;;;4.07;;
57856;SDS011;43683;48.650;9.290;2022-08-20T07:21:01;6.75;;;4.00;;
57856;SDS011;43683;48.650;9.290;2022-08-20T07:23:27;5.35;;;3.30;;
57856;SDS011;43683;48.650;9.290;2022-08-20T07:25:54;6.57;;;3.50;;
57856;SDS011;43683;48.650;9.290;2022-08-20T07:28:21;5.35;;;3.72;;
57856;SDS011;43683;48.650;9.290;2022-08-20T07:30:52;7.32;;;4.00;;
57856;SDS011;43683;48.650;9.290;2022-08-20T07:33:36;7.07;;;3.90;;
57856;SDS011;43683;48.650;9.290;2022-08-20T07:36:04;6.93;;;4.03;;
57856;SDS011;43683;48.650;9.290;2022-08-20T07:38:31;6.68;;;4.05;;
57856;SDS011;43683;48.650;9.290;2022-08-20T07:41:02;6.07;;;3.72;;
57856;SDS011;43683;48.650;9.290;2022-08-20T07:43:30;6.60;;;3.95;;
57856;SDS011;43683;48.650;9.290;2022-08-20T07:45:56;6.72;;;4.00;;
57856;SDS011;43683;48.650;9.290;2022-08-20T07:48:25;6.03;;;3.90;;
57856;SDS011;43683;48.650;9.290;2022-08-20T07:50:53;5.88;;;4.05;;
57856;SDS011;43683;48.650;9.290;2022-08-20T07:53:20;7.90;;;3.45;;
57856;SDS011;43683;48.650;9.290;2022-08-20T07:55:45;6.32;;;3.88;;
57856;SDS011;43683;48.650;9.290;2022-08-20T07:58:11;5.72;;;3.45;;
57856;SDS011;43683;48.650;9.290;2022-08-20T08:00:40;6.85;;;4.10;;
57856;SDS011;43683;48.650;9.290;2022-08-20T08:03:06;7.53;;;4.37;;
57856;SDS011;43683;48.650;9.290;2022-08-20T08:05:32;5.88;;;3.85;;
57856;SDS011;43683;48.650;9.290;2022-08-20T08:08:02;5.93;;;3.40;;
57856;SDS011;43683;48.650;9.290;2022-08-20T08:10:30;6.78;;;3.45;;
57856;SDS011;43683;48.650;9.290;2022-08-20T08:12:57;6.07;;;3.47;;
57856;SDS011;43683;48.650;9.290;2022-08-20T08:15:27;6.75;;;3.55;;
57856;SDS011;43683;48.650;9.290;2022-08-20T08:17:57;4.38;;;3.15;;
57856;SDS011;43683;48.650;9.290;2022-08-20T08:20:33;5.10;;;3.50;;
57856;SDS011;43683;48.650;9.290;2022-08-20T08:23:02;5.32;;;2.83;;
57856;SDS011;43683;48.650;9.290;2022-08-20T08:25:28;5.17;;;2.93;;
57856;SDS011;43683;48.650;9.290;2022-08-20T08:27:56;4.53;;;2.92;;
57856;SDS011;43683;48.650;9.290;2022-08-20T08:30:24;4.13;;;2.70;;
57856;SDS011;43683;48.650;9.290;2022-08-20T08:32:50;4.63;;;2.97;;
57856;SDS011;43683;48.650;9.290;2022-08-20T08:35:36;6.10;;;3.13;;
57856;SDS011;43683;48.650;9.290;2022-08-20T08:38:02;4.65;;;2.75;;
57856;SDS011;43683;48.650;9.290;2022-08-20T08:40:29;6.22;;;2.75;;
57856;SDS011;43683;48.650;9.290;2022-08-20T08:42:56;4.35;;;2.67;;
57856;SDS011;43683;48.650;9.290;2022-08-20T08:45:26;4.22;;;2.53;;
57856;SDS011;43683;48.650;9.290;2022-08-20T08:47:57;4.65;;;2.78;;
57856;SDS011;43683;48.650;9.290;2022-08-20T08:50:30;4.95;;;2.70;;
57856;SDS011;43683;48.650;9.290;2022-08-20T08:52:57;5.07;;;3.45;;
57856;SDS011;43683;48.650;9.290;2022-08-20T08:55:27;8.20;;;2.75;;
57856;SDS011;43683;48.650;9.290;2022-08-20T08:57:58;4.72;;;2.78;;
57856;SDS011;43683;48.650;9.290;2022-08-20T09:00:25;3.60;;;2.40;;
57856;SDS011;43683;48.650;9.290;2022-08-20T09:03:02;3.92;;;2.60;;
57856;SDS011;43683;48.650;9.290;2022-08-20T09:05:52;4.63;;;2.47;;
57856;SDS011;43683;48.650;9.290;2022-08-20T09:08:23;3.78;;;2.38;;
57856;SDS011;43683;48.650;9.290;2022-08-20T09:10:53;4.35;;;2.28;;
57856;SDS011;43683;48.650;9.290;2022-08-20T09:13:19;3.63;;;2.40;;
57856;SDS011;43683;48.650;9.290;2022-08-20T09:15:44;3.95;;;2.50;;
57856;SDS011;43683;48.650;9.290;2022-08-20T09:18:10;4.25;;;2.28;;
57856;SDS011;43683;48.650;9.290;2022-08-20T09:20:36;2.97;;;2.33;;
57856;SDS011;43683;48.650;9.290;2022-08-20T09:23:04;3.40;;;2.38;;
57856;SDS011;43683;48.650;9.290;2022-08-20T09:25:30;4.03;;;2.38;;
57856;SDS011;43683;48.650;9.290;2022-08-20T09:27:55;5.15;;;2.08;;
57856;SDS011;43683;48.650;9.290;2022-08-20T09:30:21;3.40;;;1.95;;
57856;SDS011;43683;48.650;9.290;2022-08-20T09:32:46;6.25;;;2.65;;
57856;SDS011;43683;48.650;9.290;2022-08-20T09:35:12;7.18;;;2.78;;
57856;SDS011;43683;48.650;9.290;2022-08-20T09:37:37;9.40;;;2.58;;
57856;SDS011;43683;48.650;9.290;2022-08-20T09:40:04;5.43;;;2.83;;
57856;SDS011;43683;48.650;9.290;2022-08-20T09:42:32;4.60;;;2.63;;
57856;SDS011;43683;48.650;9.290;2022-08-20T09:45:00;4.03;;;2.60;;
57856;SDS011;43683;48.650;9.290;2022-08-20T09:47:26;3.20;;;2.40;;
57856;SDS011;43683;48.650;9.290;2022-08-20T09:49:52;3.95;;;2.53;;
57856;SDS011;43683;48.650;9.290;2022-08-20T09:52:30;4.47;;;2.55;;
57856;SDS011;43683;48.650;9.290;2022-08-20T09:55:42;3.90;;;2.40;;
57856;SDS011;43683;48.650;9.290;2022-08-20T09:57:47;3.28;;;2.40;;
57856;SDS011;43683;48.650;9.290;2022-08-20T10:00:15;5.68;;;2.35;;
57856;SDS011;43683;48.650;9.290;2022-08-20T10:05:07;5.30;;;2.78;;
57856;SDS011;43683;48.650;9.290;2022-08-20T10:07:34;7.97;;;2.95;;
57856;SDS011;43683;48.650;9.290;2022-08-20T10:10:02;5.65;;;2.75;;
57856;SDS011;43683;48.650;9.290;2022-08-20T10:12:29;6.53;;;3.05;;
57856;SDS011;43683;48.650;9.290;2022-08-20T10:14:54;8.85;;;3.13;;
57856;SDS011;43683;48.650;9.290;2022-08-20T10:17:20;15.35;;;3.75;;
57856;SDS011;43683;48.650;9.290;2022-08-20T10:19:46;5.15;;;2.30;;
57856;SDS011;43683;48.650;9.290;2022-08-20T10:22:11;4.50;;;2.17;;
57856;SDS011;43683;48.650;9.290;2022-08-20T10:24:37;5.40;;;2.50;;
57856;SDS011;43683;48.650;9.290;2022-08-20T10:27:02;5.03;;;2.72;;
57856;SDS011;43683;48.650;9.290;2022-08-20T10:29:28;6.38;;;3.00;;
57856;SDS011;43683;48.650;9.290;2022-08-20T10:31:54;10.27;;;3.40;;
57856;SDS011;43683;48.650;9.290;2022-08-20T10:34:21;8.63;;;3.78;;
57856;SDS011;43683;48.650;9.290;2022-08-20T10:36:48;5.80;;;3.40;;
57856;SDS011;43683;48.650;9.290;2022-08-20T10:39:13;4.07;;;3.00;;
57856;SDS011;43683;48.650;9.290;2022-08-20T10:41:39;6.68;;;3.08;;
57856;SDS011;43683;48.650;9.290;2022-08-20T10:44:05;5.53;;;3.17;;
57856;SDS011;43683;48.650;9.290;2022-08-20T10:46:30;7.88;;;4.03;;
57856;SDS011;43683;48.650;9.290;2022-08-20T10:48:56;4.47;;;3.10;;
57856;SDS011;43683;48.650;9.290;2022-08-20T10:51:21;6.30;;;3.42;;
57856;SDS011;43683;48.650;9.290;2022-08-20T10:53:47;6.57;;;3.35;;
57856;SDS011;43683;48.650;9.290;2022-08-20T10:56:12;5.30;;;3.35;;
57856;SDS011;43683;48.650;9.290;2022-08-20T10:58:38;4.15;;;2.70;;
57856;SDS011;43683;48.650;9.290;2022-08-20T11:01:03;4.90;;;3.15;;
57856;SDS011;43683;48.650;9.290;2022-08-20T11:03:29;5.35;;;3.25;;
57856;SDS011;43683;48.650;9.290;2022-08-20T11:05:55;6.28;;;3.08;;
57856;SDS011;43683;48.650;9.290;2022-08-20T11:08:21;6.18;;;3.65;;
57856;SDS011;43683;48.650;9.290;2022-08-20T11:10:46;6.45;;;3.08;;
57856;SDS011;43683;48.650;9.290;2022-08-20T11:13:12;3.20;;;2.15;;
57856;SDS011;43683;48.650;9.290;2022-08-20T11:15:39;2.35;;;1.60;;
57856;SDS011;43683;48.650;9.290;2022-08-20T11:18:06;2.08;;;1.75;;
57856;SDS011;43683;48.650;9.290;2022-08-20T11:20:32;4.47;;;1.73;;
57856;SDS011;43683;48.650;9.290;2022-08-20T11:22:59;3.42;;;1.80;;
57856;SDS011;43683;48.650;9.290;2022-08-20T11:25:25;3.17;;;1.55;;
57856;SDS011;43683;48.650;9.290;2022-08-20T11:27:51;2.08;;;1.55;;
57856;SDS011;43683;48.650;9.290;2022-08-20T11:30:19;2.15;;;1.55;;
57856;SDS011;43683;48.650;9.290;2022-08-20T11:32:50;2.45;;;1.55;;
57856;SDS011;43683;48.650;9.290;2022-08-20T11:35:16;5.18;;;1.73;;
57856;SDS011;43683;48.650;9.290;2022-08-20T11:37:43;2.90;;;1.88;;
57856;SDS011;43683;48.650;9.290;2022-08-20T11:40:08;3.70;;;1.90;;
57856;SDS011;43683;48.650;9.290;2022-08-20T11:42:36;2.78;;;1.92;;
57856;SDS011;43683;48.650;9.290;2022-08-20T11:45:01;4.72;;;2.60;;
57856;SDS011;43683;48.650;9.290;2022-08-20T11:47:28;3.95;;;2.72;;
57856;SDS011;43683;48.650;9.290;2022-08-20T11:49:58;6.30;;;3.03;;
57856;SDS011;43683;48.650;9.290;2022-08-20T11:52:25;5.40;;;3.25;;
57856;SDS011;43683;48.650;9.290;2022-08-20T11:54:51;3.75;;;2.60;;
57856;SDS011;43683;48.650;9.290;2022-08-20T11:57:21;5.32;;;3.00;;
57856;SDS011;43683;48.650;9.290;2022-08-20T11:59:51;5.55;;;2.90;;
57856;SDS011;43683;48.650;9.290;2022-08-20T12:02:17;6.72;;;3.78;;
57856;SDS011;43683;48.650;9.290;2022-08-20T12:04:43;5.60;;;2.60;;
57856;SDS011;43683;48.650;9.290;2022-08-20T12:07:09;4.95;;;2.97;;
57856;SDS011;43683;48.650;9.290;2022-08-20T12:12:01;4.47;;;3.00;;
57856;SDS011;43683;48.650;9.290;2022-08-20T12:14:27;4.22;;;2.58;;
57856;SDS011;43683;48.650;9.290;2022-08-20T12:16:52;6.25;;;3.03;;
57856;SDS011;43683;48.650;9.290;2022-08-20T12:19:18;4.20;;;2.70;;
57856;SDS011;43683;48.650;9.290;2022-08-20T12:21:43;4.82;;;3.03;;
57856;SDS011;43683;48.650;9.290;2022-08-20T12:24:09;3.15;;;2.38;;
57856;SDS011;43683;48.650;9.290;2022-08-20T12:26:34;4.38;;;2.50;;
57856;SDS011;43683;48.650;9.290;2022-08-20T12:29:00;3.47;;;2.22;;
57856;SDS011;43683;48.650;9.290;2022-08-20T12:31:25;3.10;;;2.10;;
57856;SDS011;43683;48.650;9.290;2022-08-20T12:33:51;3.17;;;2.17;;
57856;SDS011;43683;48.650;9.290;2022-08-20T12:36:16;2.50;;;1.92;;
57856;SDS011;43683;48.650;9.290;2022-08-20T12:38:42;3.47;;;2.05;;
57856;SDS011;43683;48.650;9.290;2022-08-20T12:41:08;3.10;;;1.92;;
57856;SDS011;43683;48.650;9.290;2022-08-20T12:43:33;2.05;;;1.80;;
57856;SDS011;43683;48.650;9.290;2022-08-20T12:45:59;2.97;;;1.75;;
57856;SDS011;43683;48.650;9.290;2022-08-20T12:48:24;3.63;;;2.30;;
57856;SDS011;43683;48.650;9.290;2022-08-20T12:50:49;3.50;;;2.03;;
57856;SDS011;43683;48.650;9.290;2022-08-20T12:53:16;3.72;;;2.10;;
57856;SDS011;43683;48.650;9.290;2022-08-20T12:55:42;4.10;;;1.90;;
57856;SDS011;43683;48.650;9.290;2022-08-20T12:58:08;4.88;;;2.13;;
57856;SDS011;43683;48.650;9.290;2022-08-20T13:00:35;3.92;;;1.52;;
57856;SDS011;43683;48.650;9.290;2022-08-20T13:03:03;4.07;;;1.80;;
57856;SDS011;43683;48.650;9.290;2022-08-20T13:07:56;3.35;;;1.58;;
57856;SDS011;43683;48.650;9.290;2022-08-20T13:10:23;3.15;;;1.70;;
57856;SDS011;43683;48.650;9.290;2022-08-20T13:12:51;2.50;;;1.50;;
57856;SDS011;43683;48.650;9.290;2022-08-20T13:15:17;3.38;;;1.38;;
57856;SDS011;43683;48.650;9.290;2022-08-20T13:17:43;1.83;;;1.30;;
57856;SDS011;43683;48.650;9.290;2022-08-20T13:20:10;1.73;;;1.35;;
57856;SDS011;43683;48.650;9.290;2022-08-20T13:22:38;3.22;;;1.40;;
57856;SDS011;43683;48.650;9.290;2022-08-20T13:25:04;3.70;;;1.08;;
57856;SDS011;43683;48.650;9.290;2022-08-20T13:27:30;2.05;;;1.20;;
57856;SDS011;43683;48.650;9.290;2022-08-20T13:29:55;2.60;;;1.20;;
57856;SDS011;43683;48.650;9.290;2022-08-20T13:32:22;2.38;;;1.30;;
57856;SDS011;43683;48.650;9.290;2022-08-20T13:34:49;3.83;;;1.48;;
57856;SDS011;43683;48.650;9.290;2022-08-20T13:39:42;5.25;;;1.98;;
57856;SDS011;43683;48.650;9.290;2022-08-20T13:42:08;3.17;;;1.63;;
57856;SDS011;43683;48.650;9.290;2022-08-20T13:44:35;2.03;;;1.10;;
57856;SDS011;43683;48.650;9.290;2022-08-20T13:49:44;2.65;;;1.15;;
57856;SDS011;43683;48.650;9.290;2022-08-20T13:52:10;2.50;;;1.27;;
57856;SDS011;43683;48.650;9.290;2022-08-20T13:54:36;1.05;;;0.93;;
57856;SDS011;43683;48.650;9.290;2022-08-20T13:57:07;1.65;;;0.68;;
57856;SDS011;43683;48.650;9.290;2022-08-20T13:59:38;1.70;;;0.90;;
57856;SDS011;43683;48.650;9.290;2022-08-20T14:02:05;1.75;;;0.90;;
57856;SDS011;43683;48.650;9.290;2022-08-20T14:04:31;1.17;;;0.88;;
57856;SDS011;43683;48.650;9.290;2022-08-20T14:06:57;0.70;;;0.70;;
57856;SDS011;43683;48.650;9.290;2022-08-20T14:09:31;0.68;;;0.52;;
57856;SDS011;43683;48.650;9.290;2022-08-20T14:11:57;1.13;;;0.70;;
57856;SDS011;43683;48.650;9.290;2022-08-20T14:14:23;1.17;;;0.60;;
57856;SDS011;43683;48.650;9.290;2022-08-20T14:16:48;2.95;;;0.80;;
57856;SDS011;43683;48.650;9.290;2022-08-20T14:19:13;1.35;;;0.68;;
57856;SDS011;43683;48.650;9.290;2022-08-20T14:21:39;0.57;;;0.30;;
57856;SDS011;43683;48.650;9.290;2022-08-20T14:24:04;1.23;;;0.40;;
57856;SDS011;43683;48.650;9.290;2022-08-20T14:26:30;0.50;;;0.50;;
57856;SDS011;43683;48.650;9.290;2022-08-20T14:28:56;0.85;;;0.80;;
57856;SDS011;43683;48.650;9.290;2022-08-20T14:31:21;0.50;;;0.50;;
57856;SDS011;43683;48.650;9.290;2022-08-20T14:33:46;0.40;;;0.40;;
57856;SDS011;43683;48.650;9.290;2022-08-20T14:36:12;1.40;;;0.47;;
57856;SDS011;43683;48.650;9.290;2022-08-20T14:38:37;1.02;;;0.60;;
57856;SDS011;43683;48.650;9.290;2022-08-20T14:41:08;0.50;;;0.50;;
57856;SDS011;43683;48.650;9.290;2022-08-20T14:43:34;1.35;;;0.70;;
57856;SDS011;43683;48.650;9.290;2022-08-20T14:46:00;2.38;;;0.82;;
57856;SDS011;43683;48.650;9.290;2022-08-20T14:48:25;1.83;;;0.80;;
57856;SDS011;43683;48.650;9.290;2022-08-20T14:50:52;1.08;;;0.90;;
57856;SDS011;43683;48.650;9.290;2022-08-20T14:53:19;2.25;;;1.00;;
57856;SDS011;43683;48.650;9.290;2022-08-20T14:58:48;1.48;;;1.27;;
57856;SDS011;43683;48.650;9.290;2022-08-20T15:01:14;1.70;;;1.20;;
57856;SDS011;43683;48.650;9.290;2022-08-20T15:06:44;2.42;;;1.65;;
57856;SDS011;43683;48.650;9.290;2022-08-20T15:09:10;2.33;;;1.45;;
57856;SDS011;43683;48.650;9.290;2022-08-20T15:11:36;1.83;;;1.25;;
57856;SDS011;43683;48.650;9.290;2022-08-20T15:14:04;2.17;;;1.23;;
57856;SDS011;43683;48.650;9.290;2022-08-20T15:16:29;1.98;;;0.90;;